createdAt,value
2019-02-14T00:01:39.300Z,96986.91
2019-02-14T00:04:07.566Z,96978.44
2019-02-14T00:06:35.827Z,97002.53
2019-02-14T00:09:04.853Z,97001.67
2019-02-14T00:11:33.110Z,96993.59
2019-02-14T00:14:01.383Z,96988.52
2019-02-14T00:16:29.664Z,96997.11
2019-02-14T00:18:57.913Z,96988.61
2019-02-14T00:21:26.203Z,96988.68
2019-02-14T00:23:54.704Z,96995.84
2019-02-14T00:26:23.002Z,97001.36
2019-02-14T00:28:51.260Z,97003.11
2019-02-14T00:31:19.511Z,96996.45
2019-02-14T00:33:47.786Z,96997.14
2019-02-14T00:36:16.082Z,97002.69
2019-02-14T00:38:44.334Z,96995.53
2019-02-14T00:41:12.604Z,97006.19
2019-02-14T00:43:40.886Z,97003.65
2019-02-14T00:46:09.156Z,97001.17
2019-02-14T00:48:37.408Z,97002.76
2019-02-14T00:51:05.692Z,97005.84
2019-02-14T00:53:33.940Z,96994.48
2019-02-14T00:56:02.230Z,96997.44
2019-02-14T00:58:30.483Z,97003.37
2019-02-14T01:00:58.768Z,97003.37
2019-02-14T01:03:27.026Z,96996.80
2019-02-14T01:05:55.315Z,97004.41
2019-02-14T01:08:23.574Z,97005.67
2019-02-14T01:10:51.861Z,97006.59
2019-02-14T01:13:20.493Z,97002.45
2019-02-14T01:15:48.813Z,96998.23
2019-02-14T01:18:17.110Z,96995.66
2019-02-14T01:20:45.367Z,96998.64
2019-02-14T01:23:13.637Z,96998.70
2019-02-14T01:25:41.889Z,96992.40
2019-02-14T01:28:10.174Z,96984.34
2019-02-14T01:30:38.456Z,96992.36
2019-02-14T01:33:06.708Z,96978.45
2019-02-14T01:35:41.869Z,96986.95
2019-02-14T01:38:04.977Z,96994.48
2019-02-14T01:40:33.269Z,96991.55
2019-02-14T01:43:01.578Z,96995.25
2019-02-14T01:45:29.895Z,96989.83
2019-02-14T01:47:58.149Z,97002.09
2019-02-14T01:50:26.427Z,96998.02
2019-02-14T01:52:54.684Z,97001.84
2019-02-14T01:55:22.982Z,96993.83
2019-02-14T01:57:51.265Z,96993.45
2019-02-14T02:00:19.692Z,96995.16
2019-02-14T02:02:47.986Z,97003.18
2019-02-14T02:05:16.242Z,96999.38
2019-02-14T02:07:44.571Z,96994.37
2019-02-14T02:10:13.177Z,97003.59
2019-02-14T02:12:41.444Z,97000.55
2019-02-14T02:15:12.251Z,96984.85
2019-02-14T02:17:40.507Z,96988.66
2019-02-14T02:20:10.031Z,97000.83
2019-02-14T02:22:38.288Z,97003.94
2019-02-14T02:25:09.409Z,97011.20
2019-02-14T02:27:37.686Z,97007.27
2019-02-14T02:30:12.060Z,97009.36
2019-02-14T02:32:40.329Z,97003.78
2019-02-14T02:35:09.052Z,97009.64
2019-02-14T02:37:37.327Z,97010.53
2019-02-14T02:40:08.097Z,97009.55
2019-02-14T02:42:36.370Z,97007.07
2019-02-14T02:45:07.765Z,97010.88
2019-02-14T02:47:36.059Z,97005.46
2019-02-14T02:50:05.432Z,96999.81
2019-02-14T02:52:33.691Z,97012.49
2019-02-14T02:55:01.980Z,97012.14
2019-02-14T02:57:30.266Z,97020.27
2019-02-14T02:59:58.530Z,97016.80
2019-02-14T03:02:26.787Z,97022.32
2019-02-14T03:04:55.138Z,97020.27
2019-02-14T03:07:23.474Z,97021.98
2019-02-14T03:09:51.746Z,97019.78
2019-02-14T03:12:20.044Z,97009.13
2019-02-14T03:14:48.330Z,97018.77
2019-02-14T03:17:16.601Z,97021.78
2019-02-14T03:19:44.858Z,97020.89
2019-02-14T03:22:13.108Z,97024.31
2019-02-14T03:24:41.391Z,97031.52
2019-02-14T03:27:09.648Z,97032.30
2019-02-14T03:29:37.938Z,97025.52
2019-02-14T03:32:06.188Z,97039.62
2019-02-14T03:34:34.468Z,97043.87
2019-02-14T03:37:02.721Z,97037.09
2019-02-14T03:39:30.983Z,97033.70
2019-02-14T03:41:59.267Z,97040.20
2019-02-14T03:44:27.521Z,97041.00
2019-02-14T03:46:55.773Z,97040.55
2019-02-14T03:49:24.056Z,97042.58
2019-02-14T03:51:52.321Z,97040.42
2019-02-14T03:54:20.622Z,97039.97
2019-02-14T03:56:48.903Z,97036.58
2019-02-14T03:59:17.217Z,97036.92
2019-02-14T04:01:45.476Z,97030.17
2019-02-14T04:04:13.721Z,97031.61
2019-02-14T04:06:41.993Z,97037.60
2019-02-14T04:09:10.310Z,97031.55
2019-02-14T04:11:38.564Z,97036.68
2019-02-14T04:14:06.810Z,97023.14
2019-02-14T04:16:35.100Z,97025.61
2019-02-14T04:19:03.369Z,97023.49
2019-02-14T04:21:31.660Z,97026.38
2019-02-14T04:24:00.017Z,97014.96
2019-02-14T04:26:28.276Z,97023.42
2019-02-14T04:28:56.541Z,97020.89
2019-02-14T04:31:24.828Z,97019.34
2019-02-14T04:33:53.092Z,97024.48
2019-02-14T04:36:21.383Z,97025.27
2019-02-14T04:38:49.643Z,97019.41
2019-02-14T04:41:17.897Z,97023.49
2019-02-14T04:43:46.218Z,97021.71
2019-02-14T04:46:14.476Z,97012.77
2019-02-14T04:48:43.137Z,97022.13
2019-02-14T04:51:11.492Z,97028.47
2019-02-14T04:53:39.758Z,97025.45
2019-02-14T04:56:08.055Z,97020.86
2019-02-14T04:58:36.321Z,97027.98
2019-02-14T05:01:04.584Z,97027.23
2019-02-14T05:03:32.834Z,97021.78
2019-02-14T05:06:01.645Z,97020.51
2019-02-14T05:08:30.033Z,97023.05
2019-02-14T05:10:58.322Z,97036.17
2019-02-14T05:13:26.571Z,97030.66
2019-02-14T05:15:54.892Z,97036.52
2019-02-14T05:18:23.150Z,97026.78
2019-02-14T05:20:51.404Z,97038.13
2019-02-14T05:23:19.692Z,97039.40
2019-02-14T05:25:47.942Z,97049.20
2019-02-14T05:28:16.230Z,97054.20
2019-02-14T05:30:44.551Z,97050.81
2019-02-14T05:33:12.795Z,97058.31
2019-02-14T05:35:41.061Z,97063.83
2019-02-14T05:38:09.327Z,97070.23
2019-02-14T05:40:37.583Z,97077.02
2019-02-14T05:43:05.865Z,97081.30
2019-02-14T05:45:34.111Z,97076.51
2019-02-14T05:48:02.394Z,97076.92
2019-02-14T05:50:30.646Z,97077.74
2019-02-14T05:52:58.933Z,97077.33
2019-02-14T05:55:27.185Z,97078.47
2019-02-14T05:57:55.472Z,97077.58
2019-02-14T06:00:23.821Z,97081.89
2019-02-14T06:02:52.071Z,97079.11
2019-02-14T06:05:20.392Z,97081.58
2019-02-14T06:07:48.646Z,97091.69
2019-02-14T06:10:16.906Z,97087.58
2019-02-14T06:12:45.194Z,97089.84
2019-02-14T06:15:13.812Z,97089.84
2019-02-14T06:17:42.088Z,97095.36
2019-02-14T06:20:13.324Z,97092.38
2019-02-14T06:22:41.611Z,97094.43
2019-02-14T06:25:11.011Z,97105.50
2019-02-14T06:27:39.271Z,97103.89
2019-02-14T06:30:10.401Z,97109.44
2019-02-14T06:32:38.663Z,97107.77
2019-02-14T06:35:08.521Z,97104.81
2019-02-14T06:37:36.776Z,97103.48
2019-02-14T06:40:08.079Z,97105.64
2019-02-14T06:42:36.368Z,97113.24
2019-02-14T06:45:07.076Z,97112.36
2019-02-14T06:47:35.334Z,97127.53
2019-02-14T06:50:03.613Z,97113.52
2019-02-14T06:52:31.878Z,97109.81
2019-02-14T06:55:00.286Z,97121.81
2019-02-14T06:57:28.508Z,97115.88
2019-02-14T06:59:56.755Z,97125.17
2019-02-14T07:02:25.046Z,97120.47
2019-02-14T07:04:53.301Z,97133.30
2019-02-14T07:07:21.569Z,97136.23
2019-02-14T07:09:49.849Z,97136.62
2019-02-14T07:12:18.094Z,97133.16
2019-02-14T07:14:46.381Z,97131.44
2019-02-14T07:17:14.634Z,97135.52
2019-02-14T07:19:42.913Z,97132.60
2019-02-14T07:22:11.168Z,97129.90
2019-02-14T07:24:39.470Z,97134.97
2019-02-14T07:27:07.729Z,97137.85
2019-02-14T07:29:35.992Z,97123.15
2019-02-14T07:32:04.321Z,97129.42
2019-02-14T07:34:32.577Z,97129.01
2019-02-14T07:37:00.825Z,97135.17
2019-02-14T07:39:29.116Z,97128.84
2019-02-14T07:41:57.367Z,97135.24
2019-02-14T07:44:25.686Z,97130.17
2019-02-14T07:46:53.942Z,97133.53
2019-02-14T07:49:22.188Z,97129.31
2019-02-14T07:51:50.453Z,97127.23
2019-02-14T07:54:18.726Z,97130.28
2019-02-14T07:56:47.014Z,97133.70
2019-02-14T07:59:15.269Z,97122.30
2019-02-14T08:01:43.563Z,97121.47
2019-02-14T08:04:11.815Z,97125.45
2019-02-14T08:06:40.073Z,97121.81
2019-02-14T08:09:08.355Z,97130.25
2019-02-14T08:11:36.619Z,97119.59
2019-02-14T08:14:04.913Z,97126.72
2019-02-14T08:16:33.203Z,97128.50
2019-02-14T08:19:01.470Z,97120.44
2019-02-14T08:21:29.720Z,97134.91
2019-02-14T08:23:58.009Z,97145.33
2019-02-14T08:26:26.266Z,97137.55
2019-02-14T08:28:54.547Z,97141.01
2019-02-14T08:31:22.820Z,97139.33
2019-02-14T08:33:51.173Z,97138.47
2019-02-14T08:36:19.530Z,97142.03
2019-02-14T08:38:47.818Z,97149.13
2019-02-14T08:41:16.074Z,97159.63
2019-02-14T08:43:44.338Z,97155.27
2019-02-14T08:46:13.482Z,97144.13
2019-02-14T08:48:41.752Z,97154.79
2019-02-14T08:51:10.009Z,97154.52
2019-02-14T08:53:38.294Z,97158.42
2019-02-14T08:56:06.597Z,97154.55
2019-02-14T08:58:34.847Z,97155.88
2019-02-14T09:01:03.101Z,97158.94
2019-02-14T09:03:31.383Z,97148.86
2019-02-14T09:05:59.660Z,97159.11
2019-02-14T09:08:27.917Z,97154.55
2019-02-14T09:10:56.180Z,97169.84
2019-02-14T09:13:24.455Z,97161.78
2019-02-14T09:15:52.718Z,97175.02
2019-02-14T09:18:21.007Z,97177.17
2019-02-14T09:20:49.257Z,97170.34
2019-02-14T09:23:17.531Z,97172.13
2019-02-14T09:25:45.800Z,97185.41
2019-02-14T09:28:14.052Z,97173.16
2019-02-14T09:30:42.735Z,97176.69
2019-02-14T09:33:11.062Z,97181.08
2019-02-14T09:35:39.316Z,97194.52
2019-02-14T09:38:07.611Z,97193.42
2019-02-14T09:40:35.903Z,97191.00
2019-02-14T09:43:04.176Z,97184.38
2019-02-14T09:45:32.462Z,97185.50
2019-02-14T09:48:00.770Z,97193.25
2019-02-14T09:50:29.033Z,97201.38
2019-02-14T09:52:57.296Z,97200.18
2019-02-14T09:55:25.585Z,97202.06
2019-02-14T09:57:53.856Z,97194.52
2019-02-14T10:00:22.139Z,97207.14
2019-02-14T10:02:50.439Z,97201.99
2019-02-14T10:05:18.688Z,97210.33
2019-02-14T10:07:46.983Z,97201.61
2019-02-14T10:10:19.775Z,97211.94
2019-02-14T10:12:48.079Z,97208.16
2019-02-14T10:15:16.333Z,97202.81
2019-02-14T10:17:44.599Z,97198.30
2019-02-14T10:20:16.998Z,97190.78
2019-02-14T10:22:45.243Z,97182.41
2019-02-14T10:25:13.836Z,97177.49
2019-02-14T10:27:42.315Z,97184.53
2019-02-14T10:30:13.564Z,97178.67
2019-02-14T10:32:41.818Z,97166.77
2019-02-14T10:35:10.084Z,97165.49
2019-02-14T10:37:38.372Z,97155.88
2019-02-14T10:40:12.702Z,97166.48
2019-02-14T10:42:40.968Z,97154.70
2019-02-14T10:45:20.895Z,97164.36
2019-02-14T10:47:49.198Z,97159.24
2019-02-14T10:50:17.464Z,97155.11
2019-02-14T10:52:45.721Z,97154.00
2019-02-14T10:55:15.022Z,97163.94
2019-02-14T10:57:43.392Z,97148.59
2019-02-14T11:00:22.983Z,97151.73
2019-02-14T11:02:51.375Z,97147.62
2019-02-14T11:05:19.805Z,97141.33
2019-02-14T11:07:48.068Z,97143.91
2019-02-14T11:10:16.657Z,97139.89
2019-02-14T11:12:44.950Z,97147.22
2019-02-14T11:15:18.789Z,97128.75
2019-02-14T11:17:48.946Z,97136.43
2019-02-14T11:20:18.013Z,97140.13
2019-02-14T11:22:48.669Z,97137.41
2019-02-14T11:25:25.656Z,97146.51
2019-02-14T11:27:53.956Z,97151.37
2019-02-14T11:30:22.217Z,97157.03
2019-02-14T11:32:50.471Z,97173.59
2019-02-14T11:35:18.772Z,97166.81
2019-02-14T11:37:47.055Z,97176.48
2019-02-14T11:40:15.315Z,97173.09
2019-02-14T11:42:43.599Z,97157.11
2019-02-14T11:45:17.633Z,97160.23
2019-02-14T11:47:45.894Z,97162.84
2019-02-14T11:50:14.185Z,97161.57
2019-02-14T11:52:42.444Z,97161.21
2019-02-14T11:55:11.244Z,97158.89
2019-02-14T11:57:39.541Z,97177.31
2019-02-14T12:00:14.993Z,97167.71
2019-02-14T12:02:43.287Z,97151.16
2019-02-14T12:05:11.554Z,97149.15
2019-02-14T12:07:39.845Z,97148.89
2019-02-14T12:10:13.409Z,97153.88
2019-02-14T12:12:41.246Z,97168.54
2019-02-14T12:15:10.912Z,97162.12
2019-02-14T12:17:39.170Z,97159.39
2019-02-14T12:20:12.356Z,97146.97
2019-02-14T12:22:46.267Z,97137.39
2019-02-14T12:25:15.720Z,97136.02
2019-02-14T12:27:44.042Z,97136.62
2019-02-14T12:30:14.229Z,97146.30
2019-02-14T12:32:42.479Z,97145.63
2019-02-14T12:35:10.776Z,97131.18
2019-02-14T12:37:39.032Z,97123.45
2019-02-14T12:40:10.069Z,97110.21
2019-02-14T12:42:38.315Z,97115.58
2019-02-14T12:45:20.236Z,97110.66
2019-02-14T12:47:42.355Z,97109.11
2019-02-14T12:50:10.617Z,97106.55
2019-02-14T12:52:38.904Z,97108.39
2019-02-14T12:55:07.160Z,97109.28
2019-02-14T12:57:35.450Z,97100.22
2019-02-14T13:00:05.374Z,97095.70
2019-02-14T13:02:33.598Z,97090.50
2019-02-14T13:05:01.852Z,97080.78
2019-02-14T13:07:30.162Z,97079.78
2019-02-14T13:09:58.422Z,97084.47
2019-02-14T13:12:26.694Z,97076.82
2019-02-14T13:14:55.005Z,97062.52
2019-02-14T13:17:23.264Z,97066.61
2019-02-14T13:19:51.527Z,97068.05
2019-02-14T13:22:19.806Z,97064.61
2019-02-14T13:24:48.106Z,97070.59
2019-02-14T13:27:16.369Z,97061.58
2019-02-14T13:29:44.645Z,97060.58
2019-02-14T13:32:13.712Z,97062.55
2019-02-14T13:34:42.087Z,97070.50
2019-02-14T13:37:10.355Z,97058.63
2019-02-14T13:39:38.642Z,97069.33
2019-02-14T13:42:06.890Z,97062.39
2019-02-14T13:44:35.189Z,97064.00
2019-02-14T13:47:03.456Z,97064.92
2019-02-14T13:49:32.725Z,97062.73
2019-02-14T13:52:01.189Z,97064.02
2019-02-14T13:54:29.471Z,97068.70
2019-02-14T13:56:57.742Z,97067.92
2019-02-14T13:59:26.033Z,97064.94
2019-02-14T14:01:54.316Z,97051.62
2019-02-14T14:04:22.603Z,97054.27
2019-02-14T14:06:50.891Z,97055.97
2019-02-14T14:09:19.158Z,97050.45
2019-02-14T14:11:47.425Z,97056.48
2019-02-14T14:14:15.714Z,97059.05
2019-02-14T14:16:43.981Z,97059.91
2019-02-14T14:19:12.283Z,97057.34
2019-02-14T14:21:40.551Z,97058.61
2019-02-14T14:24:08.821Z,97053.91
2019-02-14T14:26:37.112Z,97065.92
2019-02-14T14:29:05.398Z,97062.03
2019-02-14T14:31:33.688Z,97072.75
2019-02-14T14:34:01.956Z,97071.83
2019-02-14T14:36:30.260Z,97067.06
2019-02-14T14:38:58.582Z,97066.64
2019-02-14T14:41:26.851Z,97071.38
2019-02-14T14:43:59.516Z,97068.77
2019-02-14T14:46:29.365Z,97067.02
2019-02-14T14:48:57.676Z,97070.61
2019-02-14T14:51:25.938Z,97069.72
2019-02-14T14:53:54.205Z,97078.27
2019-02-14T14:56:22.480Z,97069.33
2019-02-14T14:58:50.736Z,97067.89
2019-02-14T15:01:19.031Z,97074.73
2019-02-14T15:03:47.320Z,97083.59
2019-02-14T15:06:15.583Z,97087.37
2019-02-14T15:08:43.921Z,97089.09
2019-02-14T15:11:12.226Z,97089.95
2019-02-14T15:13:40.493Z,97094.87
2019-02-14T15:16:08.747Z,97099.98
2019-02-14T15:18:37.042Z,97092.88
2019-02-14T15:21:05.352Z,97100.70
2019-02-14T15:23:33.597Z,97107.48
2019-02-14T15:26:01.865Z,97106.85
2019-02-14T15:28:30.189Z,97111.97
2019-02-14T15:30:58.480Z,97105.97
2019-02-14T15:33:26.747Z,97104.45
2019-02-14T15:35:55.033Z,97108.46
2019-02-14T15:38:23.296Z,97104.84
2019-02-14T15:40:51.562Z,97103.37
2019-02-14T15:43:19.821Z,97101.50
2019-02-14T15:45:48.115Z,97096.57
2019-02-14T15:48:16.386Z,97091.66
2019-02-14T15:50:44.666Z,97101.27
2019-02-14T15:53:12.930Z,97094.29
2019-02-14T15:55:43.655Z,97102.05
2019-02-14T15:58:11.390Z,97109.55
2019-02-14T16:00:39.677Z,97112.30
2019-02-14T16:03:07.953Z,97122.28
2019-02-14T16:05:38.062Z,97136.96
2019-02-14T16:08:06.230Z,97143.92
2019-02-14T16:10:34.532Z,97141.15
2019-02-14T16:13:02.788Z,97147.22
2019-02-14T16:15:33.632Z,97150.03
2019-02-14T16:18:01.635Z,97163.81
2019-02-14T16:20:29.999Z,97156.27
2019-02-14T16:22:58.278Z,97151.95
2019-02-14T16:25:28.225Z,97146.30
2019-02-14T16:27:56.604Z,97140.21
2019-02-14T16:30:24.866Z,97146.92
2019-02-14T16:32:53.175Z,97150.08
2019-02-14T16:35:21.502Z,97150.43
2019-02-14T16:37:50.533Z,97154.88
2019-02-14T16:40:27.562Z,97152.25
2019-02-14T16:42:49.016Z,97143.30
2019-02-14T16:45:17.306Z,97160.73
2019-02-14T16:47:45.569Z,97156.00
2019-02-14T16:50:13.844Z,97158.95
2019-02-14T16:52:42.138Z,97165.14
2019-02-14T16:55:10.425Z,97166.92
2019-02-14T16:57:38.691Z,97175.91
2019-02-14T17:00:10.385Z,97173.78
2019-02-14T17:02:38.691Z,97175.37
2019-02-14T17:05:06.963Z,97175.50
2019-02-14T17:07:35.221Z,97181.34
2019-02-14T17:10:03.848Z,97187.22
2019-02-14T17:12:32.110Z,97189.75
2019-02-14T17:15:00.440Z,97197.03
2019-02-14T17:17:28.716Z,97200.92
2019-02-14T17:19:57.004Z,97203.87
2019-02-14T17:22:25.294Z,97203.81
2019-02-14T17:24:53.549Z,97194.06
2019-02-14T17:27:21.801Z,97200.83
2019-02-14T17:29:50.111Z,97200.83
2019-02-14T17:32:18.376Z,97213.11
2019-02-14T17:34:46.661Z,97203.37
2019-02-14T17:37:14.930Z,97213.91
2019-02-14T17:39:43.224Z,97202.48
2019-02-14T17:42:11.484Z,97213.97
2019-02-14T17:44:39.777Z,97223.11
2019-02-14T17:47:08.125Z,97213.23
2019-02-14T17:49:36.414Z,97214.91
2019-02-14T17:52:04.671Z,97217.45
2019-02-14T17:54:32.965Z,97218.03
2019-02-14T17:57:01.224Z,97213.73
2019-02-14T17:59:29.498Z,97210.34
2019-02-14T18:01:57.760Z,97211.17
2019-02-14T18:04:26.037Z,97210.24
2019-02-14T18:06:54.318Z,97205.41
2019-02-14T18:09:22.607Z,97205.00
2019-02-14T18:11:50.866Z,97208.30
2019-02-14T18:14:19.183Z,97207.58
2019-02-14T18:16:47.443Z,97203.90
2019-02-14T18:19:15.706Z,97209.95
2019-02-14T18:21:44.042Z,97203.22
2019-02-14T18:24:12.298Z,97205.18
2019-02-14T18:26:52.536Z,97206.38
2019-02-14T18:29:28.381Z,97201.38
2019-02-14T18:31:56.652Z,97206.52
2019-02-14T18:34:24.909Z,97205.11
2019-02-14T18:36:53.203Z,97205.94
2019-02-14T18:39:21.478Z,97204.02
2019-02-14T18:41:49.799Z,97208.41
2019-02-14T18:44:18.525Z,97205.94
2019-02-14T18:46:46.782Z,97214.00
2019-02-14T18:49:15.081Z,97206.73
2019-02-14T18:51:43.347Z,97209.27
2019-02-14T18:54:11.611Z,97216.95
2019-02-14T18:56:39.890Z,97213.14
2019-02-14T18:59:08.172Z,97210.09
2019-02-14T19:01:36.434Z,97211.02
2019-02-14T19:04:04.753Z,97208.82
2019-02-14T19:06:33.015Z,97200.52
2019-02-14T19:09:01.451Z,97212.28
2019-02-14T19:11:29.875Z,97215.75
2019-02-14T19:13:58.420Z,97212.45
2019-02-14T19:16:26.679Z,97207.78
2019-02-14T19:18:54.938Z,97197.56
2019-02-14T19:21:23.213Z,97204.67
2019-02-14T19:23:51.491Z,97205.94
2019-02-14T19:26:19.788Z,97212.22
2019-02-14T19:28:48.047Z,97210.09
2019-02-14T19:31:16.364Z,97210.53
2019-02-14T19:33:44.593Z,97214.69
2019-02-14T19:36:12.881Z,97215.03
2019-02-14T19:38:41.146Z,97204.09
2019-02-14T19:41:09.433Z,97214.00
2019-02-14T19:43:37.740Z,97213.93
2019-02-14T19:46:06.003Z,97216.09
2019-02-14T19:48:34.269Z,97208.92
2019-02-14T19:51:02.842Z,97217.36
2019-02-14T19:53:31.100Z,97216.12
2019-02-14T19:55:59.373Z,97209.74
2019-02-14T19:58:27.669Z,97214.92
2019-02-14T20:00:55.931Z,97219.20
2019-02-14T20:03:24.237Z,97215.91
2019-02-14T20:05:52.504Z,97220.41
2019-02-14T20:08:20.771Z,97218.39
2019-02-14T20:10:49.469Z,97228.13
2019-02-14T20:13:17.708Z,97231.91
2019-02-14T20:15:45.972Z,97234.23
2019-02-14T20:18:14.297Z,97240.03
2019-02-14T20:20:42.548Z,97227.00
2019-02-14T20:23:10.809Z,97226.18
2019-02-14T20:25:39.113Z,97228.44
2019-02-14T20:28:07.446Z,97228.95
2019-02-14T20:30:35.705Z,97237.02
2019-02-14T20:33:05.000Z,97238.12
2019-02-14T20:35:33.458Z,97221.03
2019-02-14T20:38:01.762Z,97232.52
2019-02-14T20:40:31.969Z,97248.69
2019-02-14T20:43:00.011Z,97230.50
2019-02-14T20:45:28.277Z,97235.64
2019-02-14T20:47:57.363Z,97234.78
2019-02-14T20:50:25.710Z,97231.91
2019-02-14T20:52:53.980Z,97228.55
2019-02-14T20:55:25.150Z,97229.40
2019-02-14T20:57:53.587Z,97234.03
2019-02-14T21:00:35.495Z,97240.79
2019-02-14T21:03:03.754Z,97234.03
2019-02-14T21:05:32.042Z,97238.28
2019-02-14T21:08:00.312Z,97234.06
2019-02-14T21:10:28.653Z,97234.03
2019-02-14T21:12:56.931Z,97233.97
2019-02-14T21:15:25.197Z,97244.02
2019-02-14T21:17:53.477Z,97233.04
2019-02-14T21:20:21.762Z,97228.82
2019-02-14T21:22:50.021Z,97233.11
2019-02-14T21:25:22.455Z,97234.72
2019-02-14T21:27:48.370Z,97246.77
2019-02-14T21:30:18.111Z,97243.88
2019-02-14T21:32:46.483Z,97240.08
2019-02-14T21:35:15.109Z,97239.22
2019-02-14T21:37:43.425Z,97227.00
2019-02-14T21:40:15.745Z,97224.56
2019-02-14T21:42:44.043Z,97228.82
2019-02-14T21:45:14.469Z,97219.14
2019-02-14T21:47:42.741Z,97222.64
2019-02-14T21:50:12.050Z,97216.77
2019-02-14T21:52:40.441Z,97223.19
2019-02-14T21:55:10.637Z,97218.11
2019-02-14T21:57:38.935Z,97221.84
2019-02-14T22:00:14.111Z,97221.75
2019-02-14T22:02:42.908Z,97228.89
2019-02-14T22:05:11.540Z,97226.34
2019-02-14T22:07:39.817Z,97219.24
2019-02-14T22:10:10.512Z,97219.24
2019-02-14T22:12:41.836Z,97209.91
2019-02-14T22:15:14.475Z,97213.24
2019-02-14T22:17:42.756Z,97200.52
2019-02-14T22:20:11.049Z,97205.53
2019-02-14T22:22:39.340Z,97209.44
2019-02-14T22:25:10.038Z,97205.18
2019-02-14T22:27:38.519Z,97205.87
2019-02-14T22:30:11.055Z,97204.95
2019-02-14T22:32:39.344Z,97211.22
2019-02-14T22:35:07.643Z,97210.84
2019-02-14T22:37:35.904Z,97210.02
2019-02-14T22:40:06.046Z,97204.88
2019-02-14T22:42:34.304Z,97209.51
2019-02-14T22:45:02.565Z,97209.44
2019-02-14T22:47:30.858Z,97209.85
2019-02-14T22:49:59.161Z,97209.92
2019-02-14T22:52:27.470Z,97210.33
2019-02-14T22:54:55.743Z,97203.41
2019-02-14T22:57:24.073Z,97208.83
2019-02-14T22:59:52.361Z,97203.58
2019-02-14T23:02:20.707Z,97204.78
2019-02-14T23:04:49.004Z,97207.32
2019-02-14T23:07:17.265Z,97205.77
2019-02-14T23:09:45.618Z,97197.68
2019-02-14T23:12:17.254Z,97205.77
2019-02-14T23:14:45.565Z,97206.70
2019-02-14T23:17:13.873Z,97208.89
2019-02-14T23:19:42.136Z,97212.73
2019-02-14T23:22:10.389Z,97212.33
2019-02-14T23:24:38.722Z,97206.87
2019-02-14T23:27:07.053Z,97207.80
2019-02-14T23:29:35.313Z,97212.97
2019-02-14T23:32:03.752Z,97212.22
2019-02-14T23:34:32.007Z,97211.80
2019-02-14T23:37:00.277Z,97211.36
2019-02-14T23:39:28.568Z,97214.31
2019-02-14T23:41:56.826Z,97226.18
2019-02-14T23:44:25.124Z,97221.38
2019-02-14T23:46:53.374Z,97212.91
2019-02-14T23:49:21.701Z,97214.17
2019-02-14T23:51:49.968Z,97216.37
2019-02-14T23:54:18.301Z,97209.23
2019-02-14T23:56:46.598Z,97211.36
2019-02-14T23:59:14.855Z,97213.25
